sensor_id;sensor_type;location;lat;lon;timestamp;pressure;altitude;pressure_sealevel;temperature;humidity
33153;BME280;19509;43.862;26.176;2023-03-11T00:00:29;98942.88;;;9.38;85.54
33153;BME280;19509;43.862;26.176;2023-03-11T00:02:59;98944.97;;;9.36;85.04
33153;BME280;19509;43.862;26.176;2023-03-11T00:05:27;98934.72;;;9.50;85.01
33153;BME280;19509;43.862;26.176;2023-03-11T00:07:53;98937.34;;;9.62;84.57
33153;BME280;19509;43.862;26.176;2023-03-11T00:10:31;98934.25;;;9.53;84.81
33153;BME280;19509;43.862;26.176;2023-03-11T00:12:58;98929.94;;;9.52;85.35
33153;BME280;19509;43.862;26.176;2023-03-11T00:15:24;98922.22;;;9.56;85.48
33153;BME280;19509;43.862;26.176;2023-03-11T00:17:50;98925.72;;;9.56;85.22
33153;BME280;19509;43.862;26.176;2023-03-11T00:20:40;98917.91;;;9.55;84.36
33153;BME280;19509;43.862;26.176;2023-03-11T00:23:05;98914.38;;;9.54;84.10
33153;BME280;19509;43.862;26.176;2023-03-11T00:25:32;98908.78;;;9.56;84.49
33153;BME280;19509;43.862;26.176;2023-03-11T00:27:58;98905.84;;;9.57;85.14
33153;BME280;19509;43.862;26.176;2023-03-11T00:30:25;98902.66;;;9.77;85.23
33153;BME280;19509;43.862;26.176;2023-03-11T00:32:53;98907.13;;;9.88;85.19
33153;BME280;19509;43.862;26.176;2023-03-11T00:35:22;98909.41;;;9.97;85.29
33153;BME280;19509;43.862;26.176;2023-03-11T00:37:52;98903.75;;;9.98;85.17
33153;BME280;19509;43.862;26.176;2023-03-11T00:40:19;98903.75;;;9.98;85.09
33153;BME280;19509;43.862;26.176;2023-03-11T00:42:45;98904.66;;;10.04;85.13
33153;BME280;19509;43.862;26.176;2023-03-11T00:45:11;98914.59;;;10.03;84.70
33153;BME280;19509;43.862;26.176;2023-03-11T00:47:37;98917.13;;;9.93;84.30
33153;BME280;19509;43.862;26.176;2023-03-11T00:50:03;98917.94;;;9.93;84.19
33153;BME280;19509;43.862;26.176;2023-03-11T00:52:28;98906.44;;;9.98;84.31
33153;BME280;19509;43.862;26.176;2023-03-11T00:54:54;98894.34;;;9.95;84.58
33153;BME280;19509;43.862;26.176;2023-03-11T00:57:20;98893.00;;;9.98;84.83
33153;BME280;19509;43.862;26.176;2023-03-11T00:59:45;98890.91;;;10.00;85.41
33153;BME280;19509;43.862;26.176;2023-03-11T01:02:11;98887.41;;;10.00;84.85
33153;BME280;19509;43.862;26.176;2023-03-11T01:04:37;98884.31;;;9.91;84.57
33153;BME280;19509;43.862;26.176;2023-03-11T01:07:02;98878.47;;;9.77;84.93
33153;BME280;19509;43.862;26.176;2023-03-11T01:09:28;98869.56;;;9.71;84.76
33153;BME280;19509;43.862;26.176;2023-03-11T01:11:53;98873.78;;;9.67;84.93
33153;BME280;19509;43.862;26.176;2023-03-11T01:14:19;98865.38;;;9.64;85.75
33153;BME280;19509;43.862;26.176;2023-03-11T01:16:44;98860.91;;;9.69;85.64
33153;BME280;19509;43.862;26.176;2023-03-11T01:19:11;98857.91;;;9.66;86.10
33153;BME280;19509;43.862;26.176;2023-03-11T01:21:36;98842.78;;;9.60;86.21
33153;BME280;19509;43.862;26.176;2023-03-11T01:24:02;98839.13;;;9.49;86.19
33153;BME280;19509;43.862;26.176;2023-03-11T01:26:28;98843.75;;;9.54;86.31
33153;BME280;19509;43.862;26.176;2023-03-11T01:28:53;98835.81;;;9.42;87.00
33153;BME280;19509;43.862;26.176;2023-03-11T01:31:18;98832.63;;;9.45;86.66
33153;BME280;19509;43.862;26.176;2023-03-11T01:33:44;98835.81;;;9.42;86.05
33153;BME280;19509;43.862;26.176;2023-03-11T01:36:10;98831.25;;;9.42;86.42
33153;BME280;19509;43.862;26.176;2023-03-11T01:38:35;98826.38;;;9.39;86.69
33153;BME280;19509;43.862;26.176;2023-03-11T01:41:01;98827.50;;;9.43;86.78
33153;BME280;19509;43.862;26.176;2023-03-11T01:48:47;98811.22;;;9.50;86.94
33153;BME280;19509;43.862;26.176;2023-03-11T01:51:13;98819.59;;;9.54;86.91
33153;BME280;19509;43.862;26.176;2023-03-11T01:53:39;98790.66;;;9.39;86.78
33153;BME280;19509;43.862;26.176;2023-03-11T01:56:05;98816.66;;;9.55;86.62
33153;BME280;19509;43.862;26.176;2023-03-11T01:58:36;98797.47;;;9.46;86.88
33153;BME280;19509;43.862;26.176;2023-03-11T02:01:04;98796.34;;;9.42;87.11
33153;BME280;19509;43.862;26.176;2023-03-11T02:03:33;98795.28;;;9.43;86.69
33153;BME280;19509;43.862;26.176;2023-03-11T02:06:00;98795.53;;;9.42;87.08
33153;BME280;19509;43.862;26.176;2023-03-11T02:08:27;98793.97;;;9.46;86.48
33153;BME280;19509;43.862;26.176;2023-03-11T02:10:55;98795.91;;;9.51;87.02
33153;BME280;19509;43.862;26.176;2023-03-11T02:13:22;98794.69;;;9.58;86.88
33153;BME280;19509;43.862;26.176;2023-03-11T02:15:48;98792.81;;;9.59;87.13
33153;BME280;19509;43.862;26.176;2023-03-11T02:18:14;98796.88;;;9.61;87.14
33153;BME280;19509;43.862;26.176;2023-03-11T02:20:44;98797.69;;;9.62;86.78
33153;BME280;19509;43.862;26.176;2023-03-11T02:23:17;98797.22;;;9.65;87.03
33153;BME280;19509;43.862;26.176;2023-03-11T02:25:56;98787.91;;;9.73;87.01
33153;BME280;19509;43.862;26.176;2023-03-11T02:28:25;98794.97;;;9.79;87.17
33153;BME280;19509;43.862;26.176;2023-03-11T02:30:51;98786.34;;;9.77;87.25
33153;BME280;19509;43.862;26.176;2023-03-11T02:33:17;98784.13;;;9.74;87.05
33153;BME280;19509;43.862;26.176;2023-03-11T02:35:43;98802.94;;;9.74;86.91
33153;BME280;19509;43.862;26.176;2023-03-11T02:38:09;98780.50;;;9.85;86.95
33153;BME280;19509;43.862;26.176;2023-03-11T02:40:48;98777.09;;;9.89;86.79
33153;BME280;19509;43.862;26.176;2023-03-11T02:43:17;98775.22;;;9.90;86.37
33153;BME280;19509;43.862;26.176;2023-03-11T02:45:44;98769.47;;;9.81;86.57
33153;BME280;19509;43.862;26.176;2023-03-11T02:48:11;98767.09;;;9.85;86.40
33153;BME280;19509;43.862;26.176;2023-03-11T02:50:37;98772.16;;;9.81;86.97
33153;BME280;19509;43.862;26.176;2023-03-11T02:53:05;98766.22;;;9.79;87.10
33153;BME280;19509;43.862;26.176;2023-03-11T02:55:31;98774.84;;;9.81;87.17
33153;BME280;19509;43.862;26.176;2023-03-11T02:57:57;98761.91;;;9.78;87.24
33153;BME280;19509;43.862;26.176;2023-03-11T03:00:22;98769.09;;;9.73;87.48
33153;BME280;19509;43.862;26.176;2023-03-11T03:02:49;98759.66;;;9.70;87.10
33153;BME280;19509;43.862;26.176;2023-03-11T03:05:17;98760.97;;;9.67;87.34
33153;BME280;19509;43.862;26.176;2023-03-11T03:07:46;98754.16;;;9.60;87.03
33153;BME280;19509;43.862;26.176;2023-03-11T03:10:12;98761.09;;;9.56;86.86
33153;BME280;19509;43.862;26.176;2023-03-11T03:12:38;98753.97;;;9.44;86.86
33153;BME280;19509;43.862;26.176;2023-03-11T03:15:04;98745.81;;;9.39;87.25
33153;BME280;19509;43.862;26.176;2023-03-11T03:17:30;98735.41;;;9.43;87.36
33153;BME280;19509;43.862;26.176;2023-03-11T03:19:55;98732.72;;;9.43;87.60
33153;BME280;19509;43.862;26.176;2023-03-11T03:22:21;98731.09;;;9.42;87.56
33153;BME280;19509;43.862;26.176;2023-03-11T03:24:48;98728.59;;;9.35;87.65
33153;BME280;19509;43.862;26.176;2023-03-11T03:27:14;98728.91;;;9.39;88.02
33153;BME280;19509;43.862;26.176;2023-03-11T03:29:39;98728.09;;;9.38;87.14
33153;BME280;19509;43.862;26.176;2023-03-11T03:32:05;98720.34;;;9.42;87.97
33153;BME280;19509;43.862;26.176;2023-03-11T03:34:31;98711.41;;;9.36;87.99
33153;BME280;19509;43.862;26.176;2023-03-11T03:36:56;98712.97;;;9.32;88.10
33153;BME280;19509;43.862;26.176;2023-03-11T03:39:21;98701.94;;;9.29;87.84
33153;BME280;19509;43.862;26.176;2023-03-11T03:41:47;98703.31;;;9.31;88.06
33153;BME280;19509;43.862;26.176;2023-03-11T03:44:13;98698.75;;;9.32;88.57
33153;BME280;19509;43.862;26.176;2023-03-11T03:46:38;98700.13;;;9.34;88.25
33153;BME280;19509;43.862;26.176;2023-03-11T03:49:04;98699.06;;;9.35;87.91
33153;BME280;19509;43.862;26.176;2023-03-11T03:51:29;98696.56;;;9.29;87.59
33153;BME280;19509;43.862;26.176;2023-03-11T03:53:55;98700.81;;;9.24;87.21
33153;BME280;19509;43.862;26.176;2023-03-11T03:56:20;98698.94;;;9.25;87.63
33153;BME280;19509;43.862;26.176;2023-03-11T03:58:46;98695.66;;;9.23;87.67
33153;BME280;19509;43.862;26.176;2023-03-11T04:01:12;98692.97;;;9.23;88.30
33153;BME280;19509;43.862;26.176;2023-03-11T04:03:38;98690.56;;;9.21;88.81
33153;BME280;19509;43.862;26.176;2023-03-11T04:06:13;98695.50;;;9.30;87.58
33153;BME280;19509;43.862;26.176;2023-03-11T04:08:40;98698.16;;;9.30;88.21
33153;BME280;19509;43.862;26.176;2023-03-11T04:11:05;98702.69;;;9.24;87.98
33153;BME280;19509;43.862;26.176;2023-03-11T04:13:31;98701.59;;;9.25;89.03
33153;BME280;19509;43.862;26.176;2023-03-11T04:15:57;98705.19;;;9.31;88.42
33153;BME280;19509;43.862;26.176;2023-03-11T04:18:22;98710.03;;;9.34;88.29
33153;BME280;19509;43.862;26.176;2023-03-11T04:20:48;98703.31;;;9.31;87.98
33153;BME280;19509;43.862;26.176;2023-03-11T04:23:14;98706.22;;;9.30;87.94
33153;BME280;19509;43.862;26.176;2023-03-11T04:25:40;98707.72;;;9.20;87.76
33153;BME280;19509;43.862;26.176;2023-03-11T04:28:05;98714.94;;;9.20;87.90
33153;BME280;19509;43.862;26.176;2023-03-11T04:30:31;98718.94;;;9.17;88.01
33153;BME280;19509;43.862;26.176;2023-03-11T04:32:56;98724.69;;;9.26;88.07
33153;BME280;19509;43.862;26.176;2023-03-11T04:35:22;98721.44;;;9.41;88.63
33153;BME280;19509;43.862;26.176;2023-03-11T04:37:47;98712.88;;;9.66;88.10
33153;BME280;19509;43.862;26.176;2023-03-11T04:40:13;98710.91;;;9.39;87.28
33153;BME280;19509;43.862;26.176;2023-03-11T04:42:39;98710.28;;;9.32;88.22
33153;BME280;19509;43.862;26.176;2023-03-11T04:45:06;98714.72;;;9.43;88.75
33153;BME280;19509;43.862;26.176;2023-03-11T04:47:31;98716.25;;;9.56;88.86
33153;BME280;19509;43.862;26.176;2023-03-11T04:49:57;98712.38;;;9.69;88.54
33153;BME280;19509;43.862;26.176;2023-03-11T04:52:22;98708.75;;;9.80;88.19
33153;BME280;19509;43.862;26.176;2023-03-11T04:54:48;98713.16;;;9.91;88.32
33153;BME280;19509;43.862;26.176;2023-03-11T04:57:14;98710.88;;;10.05;88.06
33153;BME280;19509;43.862;26.176;2023-03-11T04:59:39;98711.06;;;10.21;87.30
33153;BME280;19509;43.862;26.176;2023-03-11T05:02:05;98701.53;;;10.35;87.31
33153;BME280;19509;43.862;26.176;2023-03-11T05:04:30;98707.88;;;10.51;86.73
33153;BME280;19509;43.862;26.176;2023-03-11T05:06:56;98713.34;;;10.61;86.49
33153;BME280;19509;43.862;26.176;2023-03-11T05:09:21;98705.31;;;10.66;86.57
33153;BME280;19509;43.862;26.176;2023-03-11T05:11:47;98700.28;;;10.75;86.61
33153;BME280;19509;43.862;26.176;2023-03-11T05:14:12;98704.88;;;10.79;86.09
33153;BME280;19509;43.862;26.176;2023-03-11T05:16:38;98703.84;;;10.85;86.50
33153;BME280;19509;43.862;26.176;2023-03-11T05:19:03;98704.66;;;10.86;86.29
33153;BME280;19509;43.862;26.176;2023-03-11T05:21:49;98704.66;;;10.86;86.60
33153;BME280;19509;43.862;26.176;2023-03-11T05:24:14;98709.56;;;10.94;86.47
33153;BME280;19509;43.862;26.176;2023-03-11T05:26:40;98703.69;;;10.97;86.65
33153;BME280;19509;43.862;26.176;2023-03-11T05:29:06;98706.97;;;11.04;86.61
33153;BME280;19509;43.862;26.176;2023-03-11T05:31:31;98713.69;;;11.07;87.21
33153;BME280;19509;43.862;26.176;2023-03-11T05:33:57;98708.19;;;11.29;87.29
33153;BME280;19509;43.862;26.176;2023-03-11T05:36:22;98709.31;;;11.38;87.12
33153;BME280;19509;43.862;26.176;2023-03-11T05:38:48;98705.03;;;11.42;86.88
33153;BME280;19509;43.862;26.176;2023-03-11T05:41:14;98705.25;;;11.41;87.16
33153;BME280;19509;43.862;26.176;2023-03-11T05:43:39;98716.56;;;11.37;87.31
33153;BME280;19509;43.862;26.176;2023-03-11T05:46:05;98713.84;;;11.32;88.03
33153;BME280;19509;43.862;26.176;2023-03-11T05:48:30;98702.78;;;11.29;88.12
33153;BME280;19509;43.862;26.176;2023-03-11T05:50:56;98706.00;;;11.26;88.83
33153;BME280;19509;43.862;26.176;2023-03-11T05:53:21;98715.44;;;11.28;88.65
33153;BME280;19509;43.862;26.176;2023-03-11T05:55:55;98717.06;;;11.29;88.98
33153;BME280;19509;43.862;26.176;2023-03-11T05:58:21;98718.13;;;11.28;88.93
33153;BME280;19509;43.862;26.176;2023-03-11T06:00:46;98728.09;;;11.28;89.40
33153;BME280;19509;43.862;26.176;2023-03-11T06:03:12;98719.75;;;11.29;89.46
33153;BME280;19509;43.862;26.176;2023-03-11T06:05:44;98721.06;;;11.27;89.86
33153;BME280;19509;43.862;26.176;2023-03-11T06:08:10;98720.78;;;11.23;90.06
33153;BME280;19509;43.862;26.176;2023-03-11T06:10:35;98721.06;;;11.27;90.13
33153;BME280;19509;43.862;26.176;2023-03-11T06:13:00;98731.03;;;11.26;90.09
33153;BME280;19509;43.862;26.176;2023-03-11T06:15:26;98723.75;;;11.22;90.35
33153;BME280;19509;43.862;26.176;2023-03-11T06:17:52;98729.66;;;11.24;90.52
33153;BME280;19509;43.862;26.176;2023-03-11T06:20:17;98719.97;;;11.23;90.61
33153;BME280;19509;43.862;26.176;2023-03-11T06:22:43;98724.00;;;11.20;91.24
33153;BME280;19509;43.862;26.176;2023-03-11T06:25:09;98729.66;;;11.19;91.52
33153;BME280;19509;43.862;26.176;2023-03-11T06:27:34;98729.66;;;11.19;91.89
33153;BME280;19509;43.862;26.176;2023-03-11T06:30:00;98733.44;;;11.18;91.70
33153;BME280;19509;43.862;26.176;2023-03-11T06:32:26;98746.84;;;11.12;91.95
33153;BME280;19509;43.862;26.176;2023-03-11T06:34:53;98745.22;;;11.11;92.90
33153;BME280;19509;43.862;26.176;2023-03-11T06:37:19;98749.25;;;11.09;93.01
33153;BME280;19509;43.862;26.176;2023-03-11T06:39:46;98746.53;;;11.09;93.41
33153;BME280;19509;43.862;26.176;2023-03-11T06:42:11;98744.72;;;11.15;92.96
33153;BME280;19509;43.862;26.176;2023-03-11T06:44:37;98746.84;;;11.12;92.98
33153;BME280;19509;43.862;26.176;2023-03-11T06:47:03;98754.91;;;11.12;93.53
33153;BME280;19509;43.862;26.176;2023-03-11T06:49:28;98754.41;;;11.21;93.74
33153;BME280;19509;43.862;26.176;2023-03-11T06:51:54;98761.75;;;11.25;93.42
33153;BME280;19509;43.862;26.176;2023-03-11T06:54:19;98762.88;;;11.34;93.48
33153;BME280;19509;43.862;26.176;2023-03-11T06:56:45;98759.34;;;11.34;93.06
33153;BME280;19509;43.862;26.176;2023-03-11T06:59:12;98755.09;;;11.38;92.67
33153;BME280;19509;43.862;26.176;2023-03-11T07:01:38;98770.47;;;11.48;92.96
33153;BME280;19509;43.862;26.176;2023-03-11T07:04:03;98756.50;;;11.51;91.30
33153;BME280;19509;43.862;26.176;2023-03-11T07:06:29;98758.38;;;11.50;91.38
33153;BME280;19509;43.862;26.176;2023-03-11T07:08:54;98757.63;;;11.55;90.38
33153;BME280;19509;43.862;26.176;2023-03-11T07:11:25;98754.94;;;11.55;89.66
33153;BME280;19509;43.862;26.176;2023-03-11T07:13:52;98759.50;;;11.59;89.57
33153;BME280;19509;43.862;26.176;2023-03-11T07:16:21;98760.31;;;11.60;90.21
33153;BME280;19509;43.862;26.176;2023-03-11T07:18:49;98765.47;;;11.67;90.09
33153;BME280;19509;43.862;26.176;2023-03-11T07:21:17;98763.06;;;11.65;89.37
33153;BME280;19509;43.862;26.176;2023-03-11T07:23:43;98764.72;;;11.76;89.08
33153;BME280;19509;43.862;26.176;2023-03-11T07:26:11;98761.75;;;11.78;88.19
33153;BME280;19509;43.862;26.176;2023-03-11T07:28:37;98767.75;;;11.85;87.76
33153;BME280;19509;43.862;26.176;2023-03-11T07:31:08;98769.88;;;11.83;87.20
33153;BME280;19509;43.862;26.176;2023-03-11T07:33:34;98763.63;;;11.77;87.21
33153;BME280;19509;43.862;26.176;2023-03-11T07:36:04;98763.19;;;11.91;87.25
33153;BME280;19509;43.862;26.176;2023-03-11T07:38:30;98765.38;;;11.99;86.74
33153;BME280;19509;43.862;26.176;2023-03-11T07:40:58;98767.59;;;12.17;86.24
33153;BME280;19509;43.862;26.176;2023-03-11T07:43:23;98766.03;;;12.31;85.54
33153;BME280;19509;43.862;26.176;2023-03-11T07:45:49;98767.66;;;12.43;84.81
33153;BME280;19509;43.862;26.176;2023-03-11T07:48:16;98760.13;;;12.55;84.73
33153;BME280;19509;43.862;26.176;2023-03-11T07:50:41;98762.88;;;12.70;84.20
33153;BME280;19509;43.862;26.176;2023-03-11T07:53:07;98755.03;;;12.79;83.30
33153;BME280;19509;43.862;26.176;2023-03-11T07:55:32;98744.75;;;12.96;82.25
33153;BME280;19509;43.862;26.176;2023-03-11T07:57:58;98744.25;;;13.25;83.06
33153;BME280;19509;43.862;26.176;2023-03-11T08:00:24;98741.22;;;13.47;82.61
33153;BME280;19509;43.862;26.176;2023-03-11T08:02:49;98746.84;;;13.61;81.88
33153;BME280;19509;43.862;26.176;2023-03-11T08:05:15;98750.81;;;13.84;81.16
33153;BME280;19509;43.862;26.176;2023-03-11T08:07:41;98742.75;;;13.73;79.46
33153;BME280;19509;43.862;26.176;2023-03-11T08:10:06;98734.13;;;13.61;78.74
33153;BME280;19509;43.862;26.176;2023-03-11T08:12:32;98733.59;;;13.69;80.11
33153;BME280;19509;43.862;26.176;2023-03-11T08:14:58;98735.19;;;13.70;80.04
33153;BME280;19509;43.862;26.176;2023-03-11T08:17:23;98737.09;;;13.65;79.47
33153;BME280;19509;43.862;26.176;2023-03-11T08:19:49;98736.00;;;13.76;78.22
33153;BME280;19509;43.862;26.176;2023-03-11T08:22:14;98735.97;;;13.81;78.63
33153;BME280;19509;43.862;26.176;2023-03-11T08:24:40;98727.38;;;13.69;78.19
33153;BME280;19509;43.862;26.176;2023-03-11T08:27:06;98731.13;;;13.68;77.94
33153;BME280;19509;43.862;26.176;2023-03-11T08:29:34;98724.63;;;13.74;77.57
33153;BME280;19509;43.862;26.176;2023-03-11T08:31:59;98723.75;;;13.89;78.21
33153;BME280;19509;43.862;26.176;2023-03-11T08:34:25;98725.78;;;14.17;77.23
33153;BME280;19509;43.862;26.176;2023-03-11T08:36:51;98721.78;;;14.05;77.76
33153;BME280;19509;43.862;26.176;2023-03-11T08:39:17;98719.63;;;14.07;76.56
33153;BME280;19509;43.862;26.176;2023-03-11T08:41:43;98723.69;;;14.04;76.14
33153;BME280;19509;43.862;26.176;2023-03-11T08:44:08;98710.13;;;14.14;76.41
33153;BME280;19509;43.862;26.176;2023-03-11T08:46:37;98706.31;;;14.15;75.75
33153;BME280;19509;43.862;26.176;2023-03-11T08:49:04;98699.59;;;14.08;74.77
33153;BME280;19509;43.862;26.176;2023-03-11T08:51:31;98697.94;;;14.12;75.77
33153;BME280;19509;43.862;26.176;2023-03-11T08:53:58;98696.59;;;14.14;73.88
33153;BME280;19509;43.862;26.176;2023-03-11T08:56:24;98691.66;;;14.27;74.57
33153;BME280;19509;43.862;26.176;2023-03-11T08:58:50;98697.25;;;14.40;73.54
33153;BME280;19509;43.862;26.176;2023-03-11T09:01:16;98706.91;;;14.47;72.84
33153;BME280;19509;43.862;26.176;2023-03-11T09:03:41;98695.16;;;14.66;72.45
33153;BME280;19509;43.862;26.176;2023-03-11T09:06:10;98693.16;;;14.77;71.28
33153;BME280;19509;43.862;26.176;2023-03-11T09:08:38;98698.13;;;14.99;71.10
33153;BME280;19509;43.862;26.176;2023-03-11T09:11:03;98682.88;;;15.08;70.65
33153;BME280;19509;43.862;26.176;2023-03-11T09:13:29;98683.53;;;15.48;70.47
33153;BME280;19509;43.862;26.176;2023-03-11T09:15:55;98687.56;;;15.51;68.22
33153;BME280;19509;43.862;26.176;2023-03-11T09:18:21;98682.94;;;15.27;68.83
33153;BME280;19509;43.862;26.176;2023-03-11T09:20:47;98695.16;;;14.66;70.18
33153;BME280;19509;43.862;26.176;2023-03-11T09:23:14;98696.25;;;14.65;70.99
33153;BME280;19509;43.862;26.176;2023-03-11T09:25:39;98696.09;;;14.52;70.89
33153;BME280;19509;43.862;26.176;2023-03-11T09:28:05;98684.09;;;14.63;70.68
33153;BME280;19509;43.862;26.176;2023-03-11T09:30:31;98691.66;;;14.66;70.45
33153;BME280;19509;43.862;26.176;2023-03-11T09:32:57;98676.28;;;14.61;71.04
33153;BME280;19509;43.862;26.176;2023-03-11T09:35:23;98678.66;;;14.68;70.63
33153;BME280;19509;43.862;26.176;2023-03-11T09:37:48;98670.78;;;14.72;70.18
33153;BME280;19509;43.862;26.176;2023-03-11T09:40:17;98671.84;;;15.00;70.49
33153;BME280;19509;43.862;26.176;2023-03-11T09:45:20;98658.97;;;14.86;69.51
33153;BME280;19509;43.862;26.176;2023-03-11T09:51:02;98651.44;;;15.07;67.65
33153;BME280;19509;43.862;26.176;2023-03-11T09:53:45;98652.88;;;15.29;68.00
33153;BME280;19509;43.862;26.176;2023-03-11T09:56:15;98654.69;;;15.33;67.81
33153;BME280;19509;43.862;26.176;2023-03-11T09:58:50;98656.84;;;15.36;66.52
33153;BME280;19509;43.862;26.176;2023-03-11T10:01:33;98643.06;;;15.09;66.61
33153;BME280;19509;43.862;26.176;2023-03-11T10:04:19;98645.56;;;15.48;66.29
33153;BME280;19509;43.862;26.176;2023-03-11T10:06:47;98640.91;;;15.97;65.43
33153;BME280;19509;43.862;26.176;2023-03-11T10:09:36;98645.94;;;16.22;64.32
33153;BME280;19509;43.862;26.176;2023-03-11T10:20:32;98639.94;;;15.88;63.31
33153;BME280;19509;43.862;26.176;2023-03-11T10:28:41;98616.53;;;15.06;64.59
33153;BME280;19509;43.862;26.176;2023-03-11T10:31:29;98603.72;;;15.78;65.67
33153;BME280;19509;43.862;26.176;2023-03-11T10:34:12;98596.06;;;16.37;61.85
33153;BME280;19509;43.862;26.176;2023-03-11T10:36:56;98608.56;;;16.52;61.88
33153;BME280;19509;43.862;26.176;2023-03-11T10:39:24;98603.25;;;16.61;61.01
33153;BME280;19509;43.862;26.176;2023-03-11T10:41:53;98611.19;;;16.24;60.89
33153;BME280;19509;43.862;26.176;2023-03-11T10:44:35;98601.38;;;15.72;61.00
33153;BME280;19509;43.862;26.176;2023-03-11T10:47:02;98595.97;;;15.91;62.64
33153;BME280;19509;43.862;26.176;2023-03-11T10:49:28;98583.78;;;16.40;60.63
33153;BME280;19509;43.862;26.176;2023-03-11T10:51:54;98590.03;;;16.40;60.76
33153;BME280;19509;43.862;26.176;2023-03-11T10:54:30;98577.25;;;16.08;59.67
33153;BME280;19509;43.862;26.176;2023-03-11T10:56:59;98591.63;;;15.71;60.53
33153;BME280;19509;43.862;26.176;2023-03-11T10:59:44;98584.47;;;15.80;60.53
33153;BME280;19509;43.862;26.176;2023-03-11T11:02:41;98601.78;;;15.60;61.97
33153;BME280;19509;43.862;26.176;2023-03-11T11:07:43;98594.34;;;15.71;62.10
33153;BME280;19509;43.862;26.176;2023-03-11T11:15:36;98572.97;;;15.69;62.50
33153;BME280;19509;43.862;26.176;2023-03-11T11:21:08;98593.63;;;15.41;62.24
33153;BME280;19509;43.862;26.176;2023-03-11T11:26:22;98581.72;;;15.61;60.47
33153;BME280;19509;43.862;26.176;2023-03-11T11:29:13;98588.19;;;15.84;60.72
33153;BME280;19509;43.862;26.176;2023-03-11T11:31:44;98578.16;;;15.84;60.69
33153;BME280;19509;43.862;26.176;2023-03-11T11:34:31;98581.53;;;15.76;60.07
33153;BME280;19509;43.862;26.176;2023-03-11T11:36:59;98584.41;;;15.61;60.66
33153;BME280;19509;43.862;26.176;2023-03-11T11:39:28;98577.09;;;15.43;61.11
33153;BME280;19509;43.862;26.176;2023-03-11T11:41:55;98584.47;;;15.37;61.56
33153;BME280;19509;43.862;26.176;2023-03-11T11:44:21;98592.53;;;15.42;61.62
33153;BME280;19509;43.862;26.176;2023-03-11T11:47:02;98585.13;;;15.48;62.00
33153;BME280;19509;43.862;26.176;2023-03-11T11:49:30;98586.38;;;15.36;62.38
33153;BME280;19509;43.862;26.176;2023-03-11T11:52:19;98584.16;;;15.38;62.10
33153;BME280;19509;43.862;26.176;2023-03-11T11:54:53;98575.59;;;15.31;62.39
33153;BME280;19509;43.862;26.176;2023-03-11T11:57:22;98575.94;;;15.25;62.62
33153;BME280;19509;43.862;26.176;2023-03-11T11:59:48;98576.47;;;15.27;62.46
33153;BME280;19509;43.862;26.176;2023-03-11T12:10:37;98579.72;;;15.05;62.61
33153;BME280;19509;43.862;26.176;2023-03-11T12:16:00;98585.97;;;15.00;62.60
33153;BME280;19509;43.862;26.176;2023-03-11T12:24:23;98595.38;;;15.08;62.00
33153;BME280;19509;43.862;26.176;2023-03-11T12:26:58;98598.16;;;15.03;61.92
33153;BME280;19509;43.862;26.176;2023-03-11T12:29:32;98599.47;;;15.05;62.18
33153;BME280;19509;43.862;26.176;2023-03-11T12:31:59;98608.44;;;15.25;61.40
33153;BME280;19509;43.862;26.176;2023-03-11T12:34:26;98606.44;;;15.35;61.13
33153;BME280;19509;43.862;26.176;2023-03-11T12:36:55;98602.50;;;15.47;60.70
33153;BME280;19509;43.862;26.176;2023-03-11T12:39:30;98602.59;;;15.60;61.17
33153;BME280;19509;43.862;26.176;2023-03-11T12:44:42;98600.78;;;15.75;59.89
33153;BME280;19509;43.862;26.176;2023-03-11T12:49:36;98606.06;;;15.85;59.66
33153;BME280;19509;43.862;26.176;2023-03-11T12:52:20;98590.38;;;15.82;58.89
33153;BME280;19509;43.862;26.176;2023-03-11T12:57:52;98599.03;;;16.22;58.30
33153;BME280;19509;43.862;26.176;2023-03-11T13:09:00;98592.44;;;16.42;57.96
33153;BME280;19509;43.862;26.176;2023-03-11T13:14:19;98591.19;;;16.20;57.40
33153;BME280;19509;43.862;26.176;2023-03-11T13:16:46;98580.81;;;16.22;57.81
33153;BME280;19509;43.862;26.176;2023-03-11T13:21:59;98579.81;;;16.51;58.76
33153;BME280;19509;43.862;26.176;2023-03-11T13:32:52;98585.22;;;17.25;52.54
33153;BME280;19509;43.862;26.176;2023-03-11T13:40:44;98584.44;;;16.97;54.36
33153;BME280;19509;43.862;26.176;2023-03-11T13:45:48;98593.66;;;16.49;55.30
33153;BME280;19509;43.862;26.176;2023-03-11T13:51:06;98599.19;;;15.93;55.10
33153;BME280;19509;43.862;26.176;2023-03-11T13:53:44;98598.31;;;15.78;55.20
33153;BME280;19509;43.862;26.176;2023-03-11T13:58:48;98591.94;;;16.07;55.42
33153;BME280;19509;43.862;26.176;2023-03-11T14:01:15;98589.72;;;16.09;55.12
33153;BME280;19509;43.862;26.176;2023-03-11T14:03:43;98583.31;;;16.19;55.62
33153;BME280;19509;43.862;26.176;2023-03-11T14:06:17;98589.00;;;16.03;55.44
33153;BME280;19509;43.862;26.176;2023-03-11T14:08:54;98585.41;;;16.08;55.59
33153;BME280;19509;43.862;26.176;2023-03-11T14:11:25;98598.00;;;16.18;55.92
33153;BME280;19509;43.862;26.176;2023-03-11T14:13:51;98594.69;;;16.21;55.29
33153;BME280;19509;43.862;26.176;2023-03-11T14:16:44;98598.00;;;16.18;56.33
33153;BME280;19509;43.862;26.176;2023-03-11T14:21:47;98604.22;;;16.18;56.01
33153;BME280;19509;43.862;26.176;2023-03-11T14:24:17;98597.00;;;16.14;56.03
33153;BME280;19509;43.862;26.176;2023-03-11T14:26:44;98599.91;;;16.17;55.64
33153;BME280;19509;43.862;26.176;2023-03-11T14:29:20;98586.69;;;16.29;56.01
33153;BME280;19509;43.862;26.176;2023-03-11T14:31:48;98597.75;;;16.33;54.64
33153;BME280;19509;43.862;26.176;2023-03-11T14:34:24;98600.94;;;16.21;55.13
33153;BME280;19509;43.862;26.176;2023-03-11T14:41:54;98609.03;;;15.46;56.21
33153;BME280;19509;43.862;26.176;2023-03-11T14:44:21;98610.53;;;15.33;56.31